createdAt,value
2018-11-26T00:00:36.011Z,6.57
2018-11-26T00:03:07.139Z,6.64
2018-11-26T00:05:35.165Z,6.62
2018-11-26T00:08:03.313Z,6.86
2018-11-26T00:10:42.244Z,6.69
2018-11-26T00:13:10.246Z,6.65
2018-11-26T00:15:38.572Z,6.90
2018-11-26T00:18:06.744Z,6.80
2018-11-26T00:20:34.851Z,6.77
2018-11-26T00:23:03.536Z,6.88
2018-11-26T00:25:31.538Z,6.73
2018-11-26T00:27:59.675Z,6.69
2018-11-26T00:30:27.782Z,6.60
2018-11-26T00:32:56.372Z,6.63
2018-11-26T00:35:24.328Z,6.83
2018-11-26T00:37:52.388Z,6.82
2018-11-26T00:40:20.314Z,7.01
2018-11-26T00:45:25.303Z,6.84
2018-11-26T00:47:53.328Z,6.80
2018-11-26T00:50:21.343Z,6.99
2018-11-26T00:52:49.905Z,7.29
2018-11-26T00:55:18.008Z,7.06
2018-11-26T00:57:46.054Z,6.81
2018-11-26T01:00:14.251Z,6.64
2018-11-26T01:02:43.588Z,6.46
2018-11-26T01:05:22.350Z,6.37
2018-11-26T01:07:50.275Z,6.37
2018-11-26T01:10:18.334Z,6.20
2018-11-26T01:12:46.514Z,6.34
2018-11-26T01:15:14.674Z,6.21
2018-11-26T01:17:42.898Z,6.21
2018-11-26T01:20:10.986Z,6.46
2018-11-26T01:22:38.910Z,6.57
2018-11-26T01:25:06.896Z,6.59
2018-11-26T01:27:35.019Z,6.15
2018-11-26T01:30:03.802Z,6.71
2018-11-26T01:32:31.845Z,6.88
2018-11-26T01:35:01.357Z,6.99
2018-11-26T01:37:30.178Z,7.13
2018-11-26T01:39:58.217Z,6.88
2018-11-26T01:42:26.227Z,6.91
2018-11-26T01:44:54.180Z,6.83
2018-11-26T01:47:22.286Z,6.81
2018-11-26T01:49:50.245Z,6.86
2018-11-26T01:52:18.249Z,6.78
2018-11-26T01:54:46.297Z,6.83
2018-11-26T01:57:14.229Z,6.85
2018-11-26T01:59:42.153Z,6.81
2018-11-26T02:02:10.147Z,7.11
2018-11-26T02:04:39.102Z,7.45
2018-11-26T02:07:07.221Z,7.28
2018-11-26T02:09:35.375Z,7.56
2018-11-26T02:12:04.673Z,7.41
2018-11-26T02:14:32.733Z,7.32
2018-11-26T02:17:02.091Z,7.32
2018-11-26T02:19:30.919Z,7.30
2018-11-26T02:22:00.462Z,7.22
2018-11-26T02:24:28.604Z,7.28
2018-11-26T02:26:56.591Z,7.29
2018-11-26T02:29:24.733Z,7.22
2018-11-26T02:31:53.047Z,7.24
2018-11-26T02:34:21.065Z,7.07
2018-11-26T02:36:49.123Z,7.01
2018-11-26T02:39:17.647Z,6.82
2018-11-26T02:41:45.687Z,6.71
2018-11-26T02:44:13.731Z,6.63
2018-11-26T02:46:41.668Z,6.73
2018-11-26T02:49:09.790Z,6.58
2018-11-26T02:51:38.446Z,6.62
2018-11-26T02:54:06.422Z,6.54
2018-11-26T02:56:34.567Z,6.59
2018-11-26T02:59:02.501Z,6.64
2018-11-26T03:01:30.534Z,6.71
2018-11-26T03:03:58.572Z,6.98
2018-11-26T03:06:27.290Z,6.89
2018-11-26T03:08:55.391Z,6.88
2018-11-26T03:11:23.342Z,7.00
2018-11-26T03:13:51.314Z,6.97
2018-11-26T03:16:19.265Z,7.17
2018-11-26T03:18:47.479Z,7.09
2018-11-26T03:21:16.216Z,7.23
2018-11-26T03:23:44.101Z,7.35
2018-11-26T03:26:12.150Z,7.50
2018-11-26T03:28:40.070Z,7.41
2018-11-26T03:31:08.245Z,7.30
2018-11-26T03:33:36.479Z,7.37
2018-11-26T03:36:04.446Z,7.25
2018-11-26T03:38:49.927Z,7.35
2018-11-26T03:41:18.004Z,7.33
2018-11-26T03:43:46.198Z,7.44
2018-11-26T03:46:14.300Z,7.26
2018-11-26T03:48:42.281Z,7.49
2018-11-26T03:51:10.380Z,7.37
2018-11-26T03:53:38.368Z,7.39
2018-11-26T03:56:06.883Z,7.57
2018-11-26T03:58:34.898Z,7.56
2018-11-26T04:01:02.863Z,7.55
2018-11-26T04:03:30.763Z,7.42
2018-11-26T04:05:58.785Z,7.46
2018-11-26T04:08:26.806Z,7.62
2018-11-26T04:10:55.610Z,7.56
2018-11-26T04:13:23.792Z,7.82
2018-11-26T04:15:52.085Z,7.78
2018-11-26T04:18:21.308Z,7.56
2018-11-26T04:20:50.612Z,7.22
2018-11-26T04:23:18.808Z,7.01
2018-11-26T04:25:47.802Z,6.84
2018-11-26T04:28:16.461Z,6.56
2018-11-26T04:30:47.830Z,6.51
2018-11-26T04:33:16.050Z,6.57
2018-11-26T04:35:44.034Z,6.77
2018-11-26T04:38:12.246Z,6.66
2018-11-26T04:40:40.256Z,6.76
2018-11-26T04:43:08.176Z,6.55
2018-11-26T04:45:36.088Z,6.48
2018-11-26T04:48:04.042Z,6.43
2018-11-26T04:50:31.981Z,6.49
2018-11-26T04:52:59.984Z,6.48
2018-11-26T04:55:27.877Z,6.48
2018-11-26T04:57:55.856Z,6.53
2018-11-26T05:00:23.844Z,6.83
2018-11-26T05:02:51.776Z,6.80
2018-11-26T05:05:19.764Z,6.82
2018-11-26T05:07:47.854Z,6.89
2018-11-26T05:10:15.854Z,6.75
2018-11-26T05:12:43.872Z,6.89
2018-11-26T05:15:12.576Z,6.83
2018-11-26T05:17:40.744Z,6.94
2018-11-26T05:20:14.269Z,6.86
2018-11-26T05:22:43.428Z,6.90
2018-11-26T05:25:11.714Z,6.83
2018-11-26T05:27:39.640Z,6.85
2018-11-26T05:30:12.669Z,7.00
2018-11-26T05:32:40.883Z,7.17
2018-11-26T05:35:10.128Z,7.14
2018-11-26T05:37:38.128Z,7.16
2018-11-26T05:40:11.759Z,7.09
2018-11-26T05:42:42.193Z,7.02
2018-11-26T05:45:12.559Z,7.25
2018-11-26T05:47:41.614Z,7.27
2018-11-26T05:50:10.955Z,7.20
2018-11-26T05:52:40.046Z,7.32
2018-11-26T05:55:09.798Z,7.10
2018-11-26T05:57:39.722Z,7.21
2018-11-26T06:00:21.739Z,7.08
2018-11-26T06:02:50.893Z,7.15
2018-11-26T06:05:19.624Z,7.10
2018-11-26T06:07:48.868Z,7.11
2018-11-26T06:12:53.706Z,7.20
2018-11-26T06:15:21.668Z,7.03
2018-11-26T06:17:49.657Z,7.00
2018-11-26T06:20:17.584Z,7.00
2018-11-26T06:22:46.370Z,7.06
2018-11-26T06:25:15.704Z,7.04
2018-11-26T06:27:44.089Z,6.99
2018-11-26T06:30:17.072Z,7.19
2018-11-26T06:32:47.505Z,7.32
2018-11-26T06:35:24.106Z,7.52
2018-11-26T06:37:54.320Z,7.67
2018-11-26T06:40:26.241Z,7.77
2018-11-26T06:42:56.463Z,8.02
2018-11-26T06:45:24.498Z,8.17
2018-11-26T06:47:53.470Z,8.20
2018-11-26T06:50:22.102Z,8.33
2018-11-26T06:52:50.954Z,8.11
2018-11-26T06:55:20.308Z,8.28
2018-11-26T06:57:48.554Z,8.23
2018-11-26T07:00:18.088Z,8.24
2018-11-26T07:02:46.110Z,8.15
2018-11-26T07:05:16.410Z,8.40
2018-11-26T07:07:48.566Z,8.23
2018-11-26T07:10:18.684Z,7.96
2018-11-26T07:12:46.821Z,8.00
2018-11-26T07:15:17.886Z,7.91
2018-11-26T07:17:45.941Z,8.09
2018-11-26T07:20:15.995Z,8.06
2018-11-26T07:22:44.160Z,7.91
2018-11-26T07:25:14.067Z,7.81
2018-11-26T07:27:45.059Z,7.77
2018-11-26T07:30:20.864Z,7.74
2018-11-26T07:32:48.965Z,7.79
2018-11-26T07:35:17.188Z,8.04
2018-11-26T07:37:45.340Z,8.11
2018-11-26T07:41:04.055Z,8.36
2018-11-26T07:43:33.345Z,8.61
2018-11-26T07:46:01.490Z,8.77
2018-11-26T07:48:32.550Z,8.84
2018-11-26T07:51:00.534Z,8.79
2018-11-26T07:53:29.223Z,8.70
2018-11-26T07:55:57.199Z,8.66
2018-11-26T07:58:25.394Z,8.71
2018-11-26T08:00:54.682Z,8.85
2018-11-26T08:03:22.845Z,8.94
2018-11-26T08:05:52.442Z,8.94
2018-11-26T08:08:22.200Z,8.97
2018-11-26T08:10:50.874Z,8.95
2018-11-26T08:13:18.893Z,9.10
2018-11-26T08:15:47.074Z,9.14
2018-11-26T08:18:15.579Z,9.04
2018-11-26T08:20:43.486Z,8.98
2018-11-26T08:23:11.577Z,8.79
2018-11-26T08:25:39.593Z,8.73
2018-11-26T08:28:07.585Z,8.72
2018-11-26T08:30:35.501Z,8.67
2018-11-26T08:33:05.390Z,8.56
2018-11-26T08:35:33.578Z,8.55
2018-11-26T08:38:13.242Z,8.52
2018-11-26T08:40:42.425Z,8.49
2018-11-26T08:43:15.945Z,8.76
2018-11-26T08:49:14.036Z,8.61
2018-11-26T08:51:42.926Z,8.65
2018-11-26T08:54:10.910Z,8.63
2018-11-26T08:56:38.854Z,8.42
2018-11-26T08:59:07.066Z,8.44
2018-11-26T09:01:39.558Z,8.68
2018-11-26T09:04:09.758Z,8.84
2018-11-26T09:06:39.626Z,8.80
2018-11-26T09:09:10.089Z,8.82
2018-11-26T09:11:38.268Z,8.88
2018-11-26T09:14:06.682Z,8.95
2018-11-26T09:16:36.255Z,8.75
2018-11-26T09:19:04.843Z,8.76
2018-11-26T09:21:33.020Z,8.79
2018-11-26T09:24:01.974Z,9.03
2018-11-26T09:26:30.007Z,9.18
2018-11-26T09:28:58.053Z,9.05
2018-11-26T09:31:26.361Z,9.22
2018-11-26T09:33:58.325Z,9.20
2018-11-26T09:36:26.492Z,9.09
2018-11-26T09:38:54.616Z,9.15
2018-11-26T09:41:22.605Z,9.16
2018-11-26T09:43:50.707Z,9.34
2018-11-26T09:46:19.235Z,9.25
2018-11-26T09:48:47.299Z,9.24
2018-11-26T09:51:15.458Z,9.38
2018-11-26T09:53:43.551Z,9.40
2018-11-26T09:56:11.530Z,9.33
2018-11-26T09:58:39.495Z,9.33
2018-11-26T10:01:07.482Z,9.30
2018-11-26T10:03:35.707Z,9.41
2018-11-26T10:06:04.875Z,9.41
2018-11-26T10:08:33.076Z,9.44
2018-11-26T10:11:04.083Z,9.57
2018-11-26T10:13:32.323Z,9.80
2018-11-26T10:16:00.653Z,9.75
2018-11-26T10:18:28.648Z,9.75
2018-11-26T10:20:56.765Z,9.86
2018-11-26T10:23:24.903Z,9.97
2018-11-26T10:25:53.161Z,10.05
2018-11-26T10:28:21.258Z,10.13
2018-11-26T10:30:49.474Z,10.18
2018-11-26T10:33:17.536Z,10.15
2018-11-26T10:35:46.425Z,10.23
2018-11-26T10:38:16.562Z,10.21
2018-11-26T10:40:45.618Z,10.27
2018-11-26T10:43:13.566Z,10.17
2018-11-26T10:45:44.866Z,10.37
2018-11-26T10:48:16.749Z,10.47
2018-11-26T10:50:46.747Z,10.54
2018-11-26T10:53:15.575Z,10.52
2018-11-26T10:55:44.746Z,10.62
2018-11-26T10:58:14.135Z,10.80
2018-11-26T11:00:47.938Z,11.02
2018-11-26T11:03:17.723Z,11.10
2018-11-26T11:05:45.900Z,11.29
2018-11-26T11:08:17.768Z,11.10
2018-11-26T11:10:46.092Z,11.22
2018-11-26T11:13:14.243Z,11.23
2018-11-26T11:15:55.297Z,11.14
2018-11-26T11:18:28.473Z,11.17
2018-11-26T11:20:57.578Z,11.38
2018-11-26T11:23:25.627Z,11.56
2018-11-26T11:26:05.760Z,11.55
2018-11-26T11:28:34.229Z,11.63
2018-11-26T11:31:02.236Z,11.67
2018-11-26T11:33:30.231Z,11.70
2018-11-26T11:35:58.201Z,11.70
2018-11-26T11:38:26.242Z,11.89
2018-11-26T11:40:54.413Z,12.12
2018-11-26T11:43:22.518Z,12.03
2018-11-26T11:45:50.658Z,12.02
2018-11-26T11:48:18.629Z,11.95
2018-11-26T11:50:46.792Z,11.92
2018-11-26T11:53:15.033Z,11.99
2018-11-26T11:55:43.136Z,11.89
2018-11-26T11:58:11.226Z,11.89
2018-11-26T12:00:40.400Z,11.99
2018-11-26T12:03:11.644Z,12.02
2018-11-26T12:05:39.840Z,11.99
2018-11-26T12:08:08.638Z,11.88
2018-11-26T12:10:36.852Z,11.92
2018-11-26T12:13:05.701Z,11.95
2018-11-26T12:15:34.712Z,12.09
2018-11-26T12:18:02.702Z,12.18
2018-11-26T12:20:30.727Z,12.28
2018-11-26T12:22:59.213Z,12.23
2018-11-26T12:25:27.497Z,12.42
2018-11-26T12:27:57.549Z,12.26
2018-11-26T12:30:26.789Z,12.06
2018-11-26T12:32:54.799Z,11.95
2018-11-26T12:35:23.034Z,11.97
2018-11-26T12:37:51.388Z,12.03
2018-11-26T12:40:27.182Z,12.11
2018-11-26T12:42:56.276Z,12.34
2018-11-26T12:45:27.089Z,12.55
2018-11-26T12:48:01.121Z,12.43
2018-11-26T12:50:30.223Z,12.73
2018-11-26T12:52:58.646Z,12.71
2018-11-26T12:55:26.840Z,12.89
2018-11-26T12:57:55.816Z,12.67
2018-11-26T13:00:27.015Z,12.53
2018-11-26T13:03:12.046Z,12.65
2018-11-26T13:05:40.095Z,12.73
2018-11-26T13:08:08.597Z,12.85
2018-11-26T13:10:37.724Z,12.71
2018-11-26T13:13:06.986Z,12.56
2018-11-26T13:15:35.968Z,12.65
2018-11-26T13:18:04.768Z,12.85
2018-11-26T13:20:33.751Z,13.08
2018-11-26T13:23:01.987Z,12.84
2018-11-26T13:25:33.411Z,12.68
2018-11-26T13:28:03.166Z,12.64
2018-11-26T13:30:32.435Z,12.67
2018-11-26T13:33:01.892Z,12.78
2018-11-26T13:35:31.779Z,12.70
2018-11-26T13:37:59.902Z,12.65
2018-11-26T13:40:28.969Z,12.80
2018-11-26T13:42:56.921Z,12.81
2018-11-26T13:45:27.194Z,12.91
2018-11-26T13:47:55.300Z,12.92
2018-11-26T13:50:28.789Z,13.04
2018-11-26T13:52:57.184Z,13.14
2018-11-26T13:55:26.078Z,13.10
2018-11-26T13:57:55.496Z,13.33
2018-11-26T14:00:23.497Z,13.05
2018-11-26T14:02:51.580Z,12.89
2018-11-26T14:05:22.670Z,12.82
2018-11-26T14:10:38.448Z,13.08
2018-11-26T14:13:46.046Z,13.04
2018-11-26T14:16:14.175Z,13.07
2018-11-26T14:18:43.776Z,13.09
2018-11-26T14:21:14.015Z,12.94
2018-11-26T14:23:42.186Z,12.86
2018-11-26T14:26:10.719Z,12.85
2018-11-26T14:28:38.676Z,12.89
2018-11-26T14:31:06.792Z,12.98
2018-11-26T14:33:34.822Z,13.18
2018-11-26T14:36:03.605Z,13.11
2018-11-26T14:38:50.611Z,13.09
2018-11-26T14:41:22.900Z,12.90
2018-11-26T14:43:50.838Z,13.15
2018-11-26T14:46:18.883Z,13.03
2018-11-26T14:48:47.769Z,12.76
2018-11-26T14:51:17.922Z,12.53
2018-11-26T14:53:46.043Z,12.68
2018-11-26T14:56:14.344Z,12.69
2018-11-26T14:58:42.479Z,12.72
2018-11-26T15:01:10.719Z,12.67
2018-11-26T15:03:40.165Z,12.65
2018-11-26T15:06:08.128Z,12.67
2018-11-26T15:08:36.116Z,12.70
2018-11-26T15:11:04.472Z,12.72
2018-11-26T15:13:32.623Z,12.83
2018-11-26T15:16:02.072Z,13.00
2018-11-26T15:18:30.510Z,11.00
2018-11-26T15:21:00.484Z,12.61
2018-11-26T15:23:30.624Z,12.55
2018-11-26T15:25:58.909Z,12.48
2018-11-26T15:28:30.197Z,12.57
2018-11-26T15:31:05.242Z,12.67
2018-11-26T15:33:33.615Z,12.44
2018-11-26T15:36:02.660Z,12.61
2018-11-26T15:38:31.243Z,12.84
2018-11-26T15:40:59.553Z,12.83
2018-11-26T15:43:27.559Z,12.81
2018-11-26T15:45:55.522Z,12.80
2018-11-26T15:48:23.583Z,12.69
2018-11-26T15:50:51.693Z,12.72
2018-11-26T15:53:20.039Z,12.80
2018-11-26T15:55:48.323Z,12.92
2018-11-26T15:58:23.768Z,12.85
2018-11-26T16:00:51.556Z,12.87
2018-11-26T16:03:19.537Z,12.95
2018-11-26T16:05:47.560Z,13.10
2018-11-26T16:08:16.296Z,13.12
2018-11-26T16:10:44.911Z,12.89
2018-11-26T16:13:14.758Z,12.81
2018-11-26T16:15:43.916Z,12.91
2018-11-26T16:18:18.676Z,12.85
2018-11-26T16:20:47.389Z,13.03
2018-11-26T16:23:15.456Z,12.94
2018-11-26T16:25:44.750Z,12.77
2018-11-26T16:28:17.209Z,12.62
2018-11-26T16:30:45.371Z,12.50
2018-11-26T16:33:13.463Z,12.45
2018-11-26T16:35:42.716Z,12.59
2018-11-26T16:38:11.176Z,12.58
2018-11-26T16:40:39.155Z,12.49
2018-11-26T16:43:08.699Z,12.31
2018-11-26T16:45:36.858Z,12.18
2018-11-26T16:48:05.152Z,12.14
2018-11-26T16:50:34.307Z,12.07
2018-11-26T16:53:02.307Z,11.83
2018-11-26T16:55:30.547Z,11.85
2018-11-26T16:57:58.629Z,11.95
2018-11-26T17:00:28.774Z,12.25
2018-11-26T17:03:00.660Z,12.30
2018-11-26T17:05:33.703Z,12.43
2018-11-26T17:08:01.821Z,12.31
2018-11-26T17:10:29.884Z,12.09
2018-11-26T17:12:58.163Z,11.96
2018-11-26T17:15:26.887Z,11.84
2018-11-26T17:17:56.267Z,11.79
2018-11-26T17:20:24.418Z,11.70
2018-11-26T17:22:52.551Z,11.53
2018-11-26T17:25:20.756Z,11.36
2018-11-26T17:27:49.600Z,10.17
2018-11-26T17:30:25.814Z,11.45
2018-11-26T17:32:54.990Z,11.72
2018-11-26T17:35:22.946Z,12.12
2018-11-26T17:37:51.082Z,12.48
2018-11-26T17:40:20.356Z,12.66
2018-11-26T17:42:48.463Z,12.80
2018-11-26T17:45:17.259Z,12.73
2018-11-26T17:47:47.316Z,12.33
2018-11-26T17:50:19.541Z,11.89
2018-11-26T17:52:47.614Z,11.42
2018-11-26T17:55:15.671Z,11.20
2018-11-26T17:57:43.771Z,11.15
2018-11-26T18:00:15.092Z,11.12
2018-11-26T18:02:44.011Z,11.23
2018-11-26T18:05:15.607Z,11.34
2018-11-26T18:07:45.799Z,11.35
2018-11-26T18:10:14.979Z,11.21
2018-11-26T18:12:44.599Z,11.00
2018-11-26T18:15:14.018Z,11.09
2018-11-26T18:17:42.676Z,11.11
2018-11-26T18:20:13.575Z,10.93
2018-11-26T18:22:43.015Z,10.90
2018-11-26T18:25:11.830Z,10.78
2018-11-26T18:27:44.648Z,10.91
2018-11-26T18:30:15.197Z,11.33
2018-11-26T18:32:43.205Z,12.06
2018-11-26T18:35:11.386Z,12.84
2018-11-26T18:37:39.541Z,13.33
2018-11-26T18:40:12.976Z,13.52
2018-11-26T18:42:40.981Z,13.70
2018-11-26T18:45:11.301Z,13.98
2018-11-26T18:47:39.256Z,14.03
2018-11-26T18:50:11.826Z,12.79
2018-11-26T18:52:46.695Z,11.81
2018-11-26T18:55:24.005Z,11.16
2018-11-26T18:57:52.185Z,10.74
2018-11-26T19:00:27.329Z,10.62
2018-11-26T19:02:56.115Z,10.61
2018-11-26T19:05:24.072Z,10.72
2018-11-26T19:07:52.204Z,10.74
2018-11-26T19:10:22.147Z,10.77
2018-11-26T19:12:52.402Z,8.17
2018-11-26T19:15:23.242Z,10.77
2018-11-26T19:17:52.606Z,10.81
2018-11-26T19:20:24.041Z,10.91
2018-11-26T19:25:30.554Z,10.94
2018-11-26T19:27:59.270Z,10.99
2018-11-26T19:30:27.612Z,10.98
2018-11-26T19:32:55.665Z,10.98
2018-11-26T19:35:23.624Z,10.90
2018-11-26T19:37:51.579Z,10.94
2018-11-26T19:40:20.352Z,10.98
2018-11-26T19:42:48.394Z,11.08
2018-11-26T19:45:17.647Z,11.33
2018-11-26T19:47:45.885Z,11.37
2018-11-26T19:50:14.971Z,11.50
2018-11-26T19:52:43.768Z,11.50
2018-11-26T19:55:21.004Z,11.63
2018-11-26T19:57:49.343Z,8.38
2018-11-26T20:00:21.775Z,11.46
2018-11-26T20:02:52.370Z,11.38
2018-11-26T20:05:34.311Z,11.35
2018-11-26T20:08:02.247Z,11.35
2018-11-26T20:10:30.160Z,11.48
2018-11-26T20:12:58.116Z,11.68
2018-11-26T20:15:26.096Z,11.81
2018-11-26T20:17:58.915Z,11.99
2018-11-26T20:20:22.237Z,12.05
2018-11-26T20:22:50.143Z,11.87
2018-11-26T20:25:18.122Z,11.77
2018-11-26T20:27:46.752Z,11.79
2018-11-26T20:30:15.412Z,11.74
2018-11-26T20:32:44.991Z,11.61
2018-11-26T20:35:13.631Z,11.57
2018-11-26T20:37:42.480Z,11.62
2018-11-26T20:40:13.926Z,11.69
2018-11-26T20:42:46.571Z,11.77
2018-11-26T20:45:15.343Z,11.86
2018-11-26T20:47:43.538Z,11.97
2018-11-26T20:50:15.553Z,11.94
2018-11-26T20:52:43.501Z,11.96
2018-11-26T20:55:13.986Z,11.93
2018-11-26T20:57:42.203Z,11.88
2018-11-26T21:00:16.833Z,11.85
2018-11-26T21:02:45.569Z,11.85
2018-11-26T21:05:14.444Z,12.14
2018-11-26T21:07:42.416Z,12.21
2018-11-26T21:10:12.459Z,12.06
2018-11-26T21:12:41.375Z,11.93
2018-11-26T21:15:11.135Z,11.77
2018-11-26T21:17:39.124Z,11.69
2018-11-26T21:20:11.209Z,11.78
2018-11-26T21:22:40.219Z,11.68
2018-11-26T21:25:10.505Z,11.46
2018-11-26T21:27:39.537Z,11.78
2018-11-26T21:30:12.208Z,11.86
2018-11-26T21:32:40.308Z,11.98
2018-11-26T21:35:10.517Z,11.97
2018-11-26T21:37:38.979Z,11.95
2018-11-26T21:40:09.152Z,11.83
2018-11-26T21:42:37.100Z,11.68
2018-11-26T21:45:10.926Z,11.62
2018-11-26T21:47:38.832Z,11.61
2018-11-26T21:50:10.033Z,11.60
2018-11-26T21:52:38.552Z,11.49
2018-11-26T21:55:09.956Z,11.52
2018-11-26T21:57:38.380Z,11.47
2018-11-26T22:00:28.852Z,11.41
2018-11-26T22:02:57.220Z,11.29
2018-11-26T22:05:25.203Z,11.19
2018-11-26T22:07:53.216Z,11.33
2018-11-26T22:10:23.219Z,11.47
2018-11-26T22:12:53.189Z,11.66
2018-11-26T22:15:21.136Z,11.47
2018-11-26T22:17:49.229Z,11.13
2018-11-26T22:20:27.089Z,11.36
2018-11-26T22:22:55.297Z,11.37
2018-11-26T22:25:23.324Z,11.30
2018-11-26T22:27:52.139Z,11.14
2018-11-26T22:30:29.432Z,11.10
2018-11-26T22:32:57.475Z,11.03
2018-11-26T22:35:25.386Z,11.17
2018-11-26T22:37:53.375Z,11.30
2018-11-26T22:40:23.404Z,11.45
2018-11-26T22:42:51.518Z,11.25
2018-11-26T22:45:24.276Z,11.10
2018-11-26T22:47:59.264Z,10.92
2018-11-26T22:50:27.175Z,10.81
2018-11-26T22:52:55.063Z,10.67
2018-11-26T22:55:23.124Z,10.55
2018-11-26T22:57:51.003Z,10.50
2018-11-26T23:00:26.213Z,10.46
2018-11-26T23:02:55.364Z,10.39
2018-11-26T23:05:23.387Z,10.47
2018-11-26T23:07:51.248Z,10.54
2018-11-26T23:10:19.282Z,10.66
2018-11-26T23:12:47.431Z,10.69
2018-11-26T23:15:15.866Z,10.83
2018-11-26T23:17:44.331Z,10.99
2018-11-26T23:20:14.271Z,11.10
2018-11-26T23:22:42.164Z,11.20
2018-11-26T23:25:14.683Z,11.16
2018-11-26T23:27:42.761Z,11.01
2018-11-26T23:30:16.734Z,11.01
2018-11-26T23:32:45.836Z,11.01
2018-11-26T23:35:14.661Z,10.88
2018-11-26T23:37:42.685Z,10.71
2018-11-26T23:40:11.731Z,10.59
2018-11-26T23:42:39.750Z,10.32
2018-11-26T23:45:10.915Z,9.89
2018-11-26T23:47:38.965Z,9.72
2018-11-26T23:50:08.507Z,9.74
2018-11-26T23:52:37.000Z,9.78
2018-11-26T23:55:06.039Z,9.73
2018-11-26T23:57:33.998Z,9.85
